sensor_id;sensor_type;location;lat;lon;timestamp;P1;durP1;ratioP1;P2;durP2;ratioP2
25175;SDS011;13135;55.166;61.286;2023-01-05T00:02:37;9.90;;;5.13;;
25175;SDS011;13135;55.166;61.286;2023-01-05T00:05:22;7.53;;;5.20;;
25175;SDS011;13135;55.166;61.286;2023-01-05T00:08:06;8.20;;;5.37;;
25175;SDS011;13135;55.166;61.286;2023-01-05T00:10:50;7.13;;;4.60;;
25175;SDS011;13135;55.166;61.286;2023-01-05T00:13:34;11.80;;;6.07;;
25175;SDS011;13135;55.166;61.286;2023-01-05T00:16:18;8.57;;;5.63;;
25175;SDS011;13135;55.166;61.286;2023-01-05T00:19:03;9.33;;;5.03;;
25175;SDS011;13135;55.166;61.286;2023-01-05T00:21:47;7.63;;;5.33;;
25175;SDS011;13135;55.166;61.286;2023-01-05T00:24:31;9.27;;;5.50;;
25175;SDS011;13135;55.166;61.286;2023-01-05T00:27:15;6.40;;;4.87;;
25175;SDS011;13135;55.166;61.286;2023-01-05T00:30:00;7.10;;;5.47;;
25175;SDS011;13135;55.166;61.286;2023-01-05T00:32:45;8.27;;;4.97;;
25175;SDS011;13135;55.166;61.286;2023-01-05T00:35:29;7.83;;;4.57;;
25175;SDS011;13135;55.166;61.286;2023-01-05T00:38:14;11.27;;;5.83;;
25175;SDS011;13135;55.166;61.286;2023-01-05T00:40:59;10.67;;;5.90;;
25175;SDS011;13135;55.166;61.286;2023-01-05T00:43:43;9.93;;;5.53;;
25175;SDS011;13135;55.166;61.286;2023-01-05T00:46:28;5.10;;;4.53;;
25175;SDS011;13135;55.166;61.286;2023-01-05T00:49:12;9.93;;;5.33;;
25175;SDS011;13135;55.166;61.286;2023-01-05T00:51:56;10.73;;;5.60;;
25175;SDS011;13135;55.166;61.286;2023-01-05T00:54:40;7.20;;;5.27;;
25175;SDS011;13135;55.166;61.286;2023-01-05T00:57:25;9.17;;;4.77;;
25175;SDS011;13135;55.166;61.286;2023-01-05T01:00:15;7.23;;;5.20;;
25175;SDS011;13135;55.166;61.286;2023-01-05T01:03:05;8.57;;;5.90;;
25175;SDS011;13135;55.166;61.286;2023-01-05T01:05:56;7.87;;;5.30;;
25175;SDS011;13135;55.166;61.286;2023-01-05T01:08:40;11.37;;;5.83;;
25175;SDS011;13135;55.166;61.286;2023-01-05T01:11:24;8.77;;;5.27;;
25175;SDS011;13135;55.166;61.286;2023-01-05T01:14:09;7.07;;;4.73;;
25175;SDS011;13135;55.166;61.286;2023-01-05T01:16:52;12.33;;;5.80;;
25175;SDS011;13135;55.166;61.286;2023-01-05T01:19:35;8.87;;;4.97;;
25175;SDS011;13135;55.166;61.286;2023-01-05T01:22:19;10.10;;;5.10;;
25175;SDS011;13135;55.166;61.286;2023-01-05T01:25:05;6.03;;;4.43;;
25175;SDS011;13135;55.166;61.286;2023-01-05T01:27:50;5.27;;;4.77;;
25175;SDS011;13135;55.166;61.286;2023-01-05T01:30:36;7.17;;;5.37;;
25175;SDS011;13135;55.166;61.286;2023-01-05T01:33:19;5.30;;;3.67;;
25175;SDS011;13135;55.166;61.286;2023-01-05T01:36:03;6.30;;;4.77;;
25175;SDS011;13135;55.166;61.286;2023-01-05T01:38:48;6.73;;;3.87;;
25175;SDS011;13135;55.166;61.286;2023-01-05T01:41:32;6.83;;;5.03;;
25175;SDS011;13135;55.166;61.286;2023-01-05T01:47:17;6.07;;;5.53;;
25175;SDS011;13135;55.166;61.286;2023-01-05T01:50:03;5.87;;;4.87;;
25175;SDS011;13135;55.166;61.286;2023-01-05T01:53:00;5.53;;;4.80;;
25175;SDS011;13135;55.166;61.286;2023-01-05T01:55:43;7.00;;;5.23;;
25175;SDS011;13135;55.166;61.286;2023-01-05T01:58:28;7.80;;;5.37;;
25175;SDS011;13135;55.166;61.286;2023-01-05T02:01:13;7.23;;;5.17;;
25175;SDS011;13135;55.166;61.286;2023-01-05T02:03:58;5.50;;;4.90;;
25175;SDS011;13135;55.166;61.286;2023-01-05T02:06:42;6.13;;;4.83;;
25175;SDS011;13135;55.166;61.286;2023-01-05T02:09:27;7.90;;;5.67;;
25175;SDS011;13135;55.166;61.286;2023-01-05T02:12:30;13.23;;;8.57;;
25175;SDS011;13135;55.166;61.286;2023-01-05T02:18:37;8.03;;;7.13;;
25175;SDS011;13135;55.166;61.286;2023-01-05T02:24:17;7.63;;;6.63;;
25175;SDS011;13135;55.166;61.286;2023-01-05T02:33:19;14.57;;;6.80;;
25175;SDS011;13135;55.166;61.286;2023-01-05T02:36:10;7.57;;;6.17;;
25175;SDS011;13135;55.166;61.286;2023-01-05T02:38:52;6.90;;;5.20;;
25175;SDS011;13135;55.166;61.286;2023-01-05T02:41:43;7.90;;;6.77;;
25175;SDS011;13135;55.166;61.286;2023-01-05T02:44:28;5.43;;;4.93;;
25175;SDS011;13135;55.166;61.286;2023-01-05T02:50:25;5.40;;;4.87;;
25175;SDS011;13135;55.166;61.286;2023-01-05T02:53:13;6.70;;;4.70;;
25175;SDS011;13135;55.166;61.286;2023-01-05T02:59:19;3.87;;;3.57;;
25175;SDS011;13135;55.166;61.286;2023-01-05T03:02:08;5.63;;;3.97;;
25175;SDS011;13135;55.166;61.286;2023-01-05T03:04:54;7.80;;;5.47;;
25175;SDS011;13135;55.166;61.286;2023-01-05T03:07:38;7.87;;;5.03;;
25175;SDS011;13135;55.166;61.286;2023-01-05T03:10:21;6.27;;;4.73;;
25175;SDS011;13135;55.166;61.286;2023-01-05T03:13:06;6.77;;;5.63;;
25175;SDS011;13135;55.166;61.286;2023-01-05T03:15:48;7.30;;;6.03;;
25175;SDS011;13135;55.166;61.286;2023-01-05T03:18:32;5.53;;;4.40;;
25175;SDS011;13135;55.166;61.286;2023-01-05T03:21:20;6.90;;;5.03;;
25175;SDS011;13135;55.166;61.286;2023-01-05T03:24:24;5.13;;;4.53;;
25175;SDS011;13135;55.166;61.286;2023-01-05T03:27:08;9.90;;;6.17;;
25175;SDS011;13135;55.166;61.286;2023-01-05T03:29:52;11.57;;;6.90;;
25175;SDS011;13135;55.166;61.286;2023-01-05T03:32:36;7.47;;;6.67;;
25175;SDS011;13135;55.166;61.286;2023-01-05T03:35:19;11.47;;;5.80;;
25175;SDS011;13135;55.166;61.286;2023-01-05T03:40:59;13.13;;;6.43;;
25175;SDS011;13135;55.166;61.286;2023-01-05T03:43:45;9.67;;;5.63;;
25175;SDS011;13135;55.166;61.286;2023-01-05T03:46:28;16.13;;;5.77;;
25175;SDS011;13135;55.166;61.286;2023-01-05T03:49:12;7.07;;;4.43;;
25175;SDS011;13135;55.166;61.286;2023-01-05T03:51:56;5.80;;;5.30;;
25175;SDS011;13135;55.166;61.286;2023-01-05T03:54:39;5.97;;;4.70;;
25175;SDS011;13135;55.166;61.286;2023-01-05T03:57:23;6.53;;;5.50;;
25175;SDS011;13135;55.166;61.286;2023-01-05T04:00:08;6.07;;;5.50;;
25175;SDS011;13135;55.166;61.286;2023-01-05T04:02:53;12.07;;;5.03;;
25175;SDS011;13135;55.166;61.286;2023-01-05T04:05:37;5.93;;;5.07;;
25175;SDS011;13135;55.166;61.286;2023-01-05T04:08:22;12.47;;;3.97;;
25175;SDS011;13135;55.166;61.286;2023-01-05T04:11:10;6.50;;;4.77;;
25175;SDS011;13135;55.166;61.286;2023-01-05T04:13:54;4.80;;;3.60;;
25175;SDS011;13135;55.166;61.286;2023-01-05T04:16:39;9.63;;;6.17;;
25175;SDS011;13135;55.166;61.286;2023-01-05T04:19:23;10.43;;;6.57;;
25175;SDS011;13135;55.166;61.286;2023-01-05T04:22:07;8.30;;;4.90;;
25175;SDS011;13135;55.166;61.286;2023-01-05T04:24:52;6.73;;;4.67;;
25175;SDS011;13135;55.166;61.286;2023-01-05T04:27:36;4.97;;;4.53;;
25175;SDS011;13135;55.166;61.286;2023-01-05T04:30:21;6.13;;;4.27;;
25175;SDS011;13135;55.166;61.286;2023-01-05T04:33:06;7.90;;;6.33;;
25175;SDS011;13135;55.166;61.286;2023-01-05T04:35:51;12.97;;;4.80;;
25175;SDS011;13135;55.166;61.286;2023-01-05T04:38:41;10.77;;;5.43;;
25175;SDS011;13135;55.166;61.286;2023-01-05T04:41:25;11.83;;;7.63;;
25175;SDS011;13135;55.166;61.286;2023-01-05T04:44:11;12.73;;;7.70;;
25175;SDS011;13135;55.166;61.286;2023-01-05T04:46:54;9.57;;;6.70;;
25175;SDS011;13135;55.166;61.286;2023-01-05T04:49:38;8.73;;;7.83;;
25175;SDS011;13135;55.166;61.286;2023-01-05T04:52:24;10.23;;;8.07;;
25175;SDS011;13135;55.166;61.286;2023-01-05T04:55:09;10.10;;;6.90;;
25175;SDS011;13135;55.166;61.286;2023-01-05T04:57:53;13.20;;;8.23;;
25175;SDS011;13135;55.166;61.286;2023-01-05T05:00:37;14.97;;;9.87;;
25175;SDS011;13135;55.166;61.286;2023-01-05T05:03:21;16.20;;;9.90;;
25175;SDS011;13135;55.166;61.286;2023-01-05T05:06:06;11.67;;;8.37;;
25175;SDS011;13135;55.166;61.286;2023-01-05T05:08:52;13.87;;;10.47;;
25175;SDS011;13135;55.166;61.286;2023-01-05T05:11:37;6.63;;;5.67;;
25175;SDS011;13135;55.166;61.286;2023-01-05T05:14:22;13.33;;;8.60;;
25175;SDS011;13135;55.166;61.286;2023-01-05T05:17:06;9.40;;;7.17;;
25175;SDS011;13135;55.166;61.286;2023-01-05T05:19:51;7.77;;;6.13;;
25175;SDS011;13135;55.166;61.286;2023-01-05T05:22:36;8.77;;;6.90;;
25175;SDS011;13135;55.166;61.286;2023-01-05T05:25:23;14.23;;;7.67;;
25175;SDS011;13135;55.166;61.286;2023-01-05T05:28:05;10.60;;;7.33;;
25175;SDS011;13135;55.166;61.286;2023-01-05T05:30:49;13.43;;;9.80;;
25175;SDS011;13135;55.166;61.286;2023-01-05T05:33:33;12.27;;;9.70;;
25175;SDS011;13135;55.166;61.286;2023-01-05T05:36:17;17.37;;;9.87;;
25175;SDS011;13135;55.166;61.286;2023-01-05T05:39:01;19.23;;;11.93;;
25175;SDS011;13135;55.166;61.286;2023-01-05T05:41:46;16.97;;;10.43;;
25175;SDS011;13135;55.166;61.286;2023-01-05T05:44:32;17.23;;;11.03;;
25175;SDS011;13135;55.166;61.286;2023-01-05T05:47:17;22.27;;;12.87;;
25175;SDS011;13135;55.166;61.286;2023-01-05T05:49:59;19.83;;;12.30;;
25175;SDS011;13135;55.166;61.286;2023-01-05T05:52:43;14.60;;;9.17;;
25175;SDS011;13135;55.166;61.286;2023-01-05T05:55:29;15.97;;;9.47;;
25175;SDS011;13135;55.166;61.286;2023-01-05T05:58:14;14.43;;;9.17;;
25175;SDS011;13135;55.166;61.286;2023-01-05T06:00:59;15.20;;;9.83;;
25175;SDS011;13135;55.166;61.286;2023-01-05T06:03:44;24.80;;;11.63;;
25175;SDS011;13135;55.166;61.286;2023-01-05T06:06:29;24.83;;;15.63;;
25175;SDS011;13135;55.166;61.286;2023-01-05T06:09:13;14.37;;;11.23;;
25175;SDS011;13135;55.166;61.286;2023-01-05T06:11:57;24.30;;;12.53;;
25175;SDS011;13135;55.166;61.286;2023-01-05T06:14:41;19.60;;;10.87;;
25175;SDS011;13135;55.166;61.286;2023-01-05T06:17:26;18.97;;;10.40;;
25175;SDS011;13135;55.166;61.286;2023-01-05T06:20:09;16.20;;;9.97;;
25175;SDS011;13135;55.166;61.286;2023-01-05T06:22:53;13.30;;;9.07;;
25175;SDS011;13135;55.166;61.286;2023-01-05T06:25:37;10.13;;;7.20;;
25175;SDS011;13135;55.166;61.286;2023-01-05T06:28:22;16.67;;;9.90;;
25175;SDS011;13135;55.166;61.286;2023-01-05T06:31:08;9.50;;;7.30;;
25175;SDS011;13135;55.166;61.286;2023-01-05T06:33:52;9.83;;;8.60;;
25175;SDS011;13135;55.166;61.286;2023-01-05T06:36:41;64.47;;;31.47;;
25175;SDS011;13135;55.166;61.286;2023-01-05T06:39:25;42.53;;;25.10;;
25175;SDS011;13135;55.166;61.286;2023-01-05T06:42:09;58.27;;;29.77;;
25175;SDS011;13135;55.166;61.286;2023-01-05T06:44:54;60.07;;;29.53;;
25175;SDS011;13135;55.166;61.286;2023-01-05T06:47:38;39.20;;;19.63;;
25175;SDS011;13135;55.166;61.286;2023-01-05T06:50:22;23.77;;;14.30;;
25175;SDS011;13135;55.166;61.286;2023-01-05T06:53:07;21.67;;;11.40;;
25175;SDS011;13135;55.166;61.286;2023-01-05T06:55:52;22.60;;;13.43;;
25175;SDS011;13135;55.166;61.286;2023-01-05T06:58:36;22.40;;;13.70;;
25175;SDS011;13135;55.166;61.286;2023-01-05T07:01:20;34.07;;;18.80;;
25175;SDS011;13135;55.166;61.286;2023-01-05T07:04:04;70.67;;;37.40;;
25175;SDS011;13135;55.166;61.286;2023-01-05T07:06:49;23.23;;;16.17;;
25175;SDS011;13135;55.166;61.286;2023-01-05T07:09:34;21.53;;;14.70;;
25175;SDS011;13135;55.166;61.286;2023-01-05T07:12:18;46.77;;;26.03;;
25175;SDS011;13135;55.166;61.286;2023-01-05T07:15:03;174.20;;;72.33;;
25175;SDS011;13135;55.166;61.286;2023-01-05T07:17:49;74.77;;;37.37;;
25175;SDS011;13135;55.166;61.286;2023-01-05T07:20:32;59.03;;;28.30;;
25175;SDS011;13135;55.166;61.286;2023-01-05T07:23:18;50.70;;;24.83;;
25175;SDS011;13135;55.166;61.286;2023-01-05T07:26:03;157.63;;;62.97;;
25175;SDS011;13135;55.166;61.286;2023-01-05T07:28:47;80.33;;;39.60;;
25175;SDS011;13135;55.166;61.286;2023-01-05T07:31:32;58.23;;;30.83;;
25175;SDS011;13135;55.166;61.286;2023-01-05T07:34:17;33.00;;;15.50;;
25175;SDS011;13135;55.166;61.286;2023-01-05T07:37:02;38.43;;;20.80;;
25175;SDS011;13135;55.166;61.286;2023-01-05T07:39:46;31.40;;;16.57;;
25175;SDS011;13135;55.166;61.286;2023-01-05T07:42:31;29.53;;;16.73;;
25175;SDS011;13135;55.166;61.286;2023-01-05T07:45:13;29.17;;;16.67;;
25175;SDS011;13135;55.166;61.286;2023-01-05T07:47:58;36.77;;;17.47;;
25175;SDS011;13135;55.166;61.286;2023-01-05T07:50:43;30.57;;;15.37;;
25175;SDS011;13135;55.166;61.286;2023-01-05T07:53:26;27.67;;;13.70;;
25175;SDS011;13135;55.166;61.286;2023-01-05T07:56:12;21.33;;;12.53;;
25175;SDS011;13135;55.166;61.286;2023-01-05T07:58:53;22.60;;;12.63;;
25175;SDS011;13135;55.166;61.286;2023-01-05T08:01:36;21.43;;;12.37;;
25175;SDS011;13135;55.166;61.286;2023-01-05T08:04:21;20.33;;;11.10;;
25175;SDS011;13135;55.166;61.286;2023-01-05T08:07:05;24.37;;;13.27;;
25175;SDS011;13135;55.166;61.286;2023-01-05T08:09:50;24.37;;;13.87;;
25175;SDS011;13135;55.166;61.286;2023-01-05T08:12:35;25.30;;;13.67;;
25175;SDS011;13135;55.166;61.286;2023-01-05T08:15:20;20.90;;;12.00;;
25175;SDS011;13135;55.166;61.286;2023-01-05T08:18:05;22.20;;;12.40;;
25175;SDS011;13135;55.166;61.286;2023-01-05T08:20:52;30.53;;;12.83;;
25175;SDS011;13135;55.166;61.286;2023-01-05T08:23:36;25.97;;;13.77;;
25175;SDS011;13135;55.166;61.286;2023-01-05T08:26:18;28.07;;;14.67;;
25175;SDS011;13135;55.166;61.286;2023-01-05T08:29:03;28.40;;;13.90;;
25175;SDS011;13135;55.166;61.286;2023-01-05T08:31:46;35.67;;;17.03;;
25175;SDS011;13135;55.166;61.286;2023-01-05T08:34:36;66.93;;;30.33;;
25175;SDS011;13135;55.166;61.286;2023-01-05T08:37:20;34.60;;;16.47;;
25175;SDS011;13135;55.166;61.286;2023-01-05T08:40:05;44.30;;;20.20;;
25175;SDS011;13135;55.166;61.286;2023-01-05T08:42:51;35.80;;;15.83;;
25175;SDS011;13135;55.166;61.286;2023-01-05T08:45:35;33.97;;;17.07;;
25175;SDS011;13135;55.166;61.286;2023-01-05T08:48:20;40.40;;;20.37;;
25175;SDS011;13135;55.166;61.286;2023-01-05T08:51:09;37.13;;;20.40;;
25175;SDS011;13135;55.166;61.286;2023-01-05T08:53:53;36.00;;;17.80;;
25175;SDS011;13135;55.166;61.286;2023-01-05T08:56:38;33.20;;;17.43;;
25175;SDS011;13135;55.166;61.286;2023-01-05T08:59:23;32.60;;;18.23;;
25175;SDS011;13135;55.166;61.286;2023-01-05T09:02:09;31.23;;;18.87;;
25175;SDS011;13135;55.166;61.286;2023-01-05T09:04:52;30.03;;;17.77;;
25175;SDS011;13135;55.166;61.286;2023-01-05T09:07:37;35.37;;;18.57;;
25175;SDS011;13135;55.166;61.286;2023-01-05T09:10:21;33.30;;;17.90;;
25175;SDS011;13135;55.166;61.286;2023-01-05T09:13:05;38.67;;;19.03;;
25175;SDS011;13135;55.166;61.286;2023-01-05T09:15:50;36.00;;;19.10;;
25175;SDS011;13135;55.166;61.286;2023-01-05T09:18:35;36.17;;;18.83;;
25175;SDS011;13135;55.166;61.286;2023-01-05T09:21:19;41.13;;;18.93;;
25175;SDS011;13135;55.166;61.286;2023-01-05T09:24:05;32.07;;;16.30;;
25175;SDS011;13135;55.166;61.286;2023-01-05T09:26:49;33.47;;;16.27;;
25175;SDS011;13135;55.166;61.286;2023-01-05T09:29:33;35.60;;;18.20;;
25175;SDS011;13135;55.166;61.286;2023-01-05T09:32:18;59.30;;;26.03;;
25175;SDS011;13135;55.166;61.286;2023-01-05T09:35:04;78.03;;;33.57;;
25175;SDS011;13135;55.166;61.286;2023-01-05T09:37:50;60.83;;;28.03;;
25175;SDS011;13135;55.166;61.286;2023-01-05T09:40:39;50.13;;;24.17;;
25175;SDS011;13135;55.166;61.286;2023-01-05T09:43:24;30.60;;;15.30;;
25175;SDS011;13135;55.166;61.286;2023-01-05T09:46:12;35.90;;;19.50;;
25175;SDS011;13135;55.166;61.286;2023-01-05T09:48:58;37.10;;;20.63;;
25175;SDS011;13135;55.166;61.286;2023-01-05T09:51:41;43.73;;;22.43;;
25175;SDS011;13135;55.166;61.286;2023-01-05T09:54:26;41.03;;;20.53;;
25175;SDS011;13135;55.166;61.286;2023-01-05T09:57:13;36.57;;;18.93;;
25175;SDS011;13135;55.166;61.286;2023-01-05T09:59:59;34.87;;;18.00;;
25175;SDS011;13135;55.166;61.286;2023-01-05T10:02:46;34.60;;;17.13;;
25175;SDS011;13135;55.166;61.286;2023-01-05T10:05:30;28.13;;;15.83;;
25175;SDS011;13135;55.166;61.286;2023-01-05T10:08:17;32.13;;;16.00;;
25175;SDS011;13135;55.166;61.286;2023-01-05T10:11:04;34.83;;;16.33;;
25175;SDS011;13135;55.166;61.286;2023-01-05T10:14:01;33.33;;;16.03;;
25175;SDS011;13135;55.166;61.286;2023-01-05T10:16:47;32.00;;;16.20;;
25175;SDS011;13135;55.166;61.286;2023-01-05T10:19:32;31.83;;;16.47;;
25175;SDS011;13135;55.166;61.286;2023-01-05T10:22:22;70.30;;;32.27;;
25175;SDS011;13135;55.166;61.286;2023-01-05T10:28:28;38.03;;;19.63;;
25175;SDS011;13135;55.166;61.286;2023-01-05T10:34:07;39.03;;;19.23;;
25175;SDS011;13135;55.166;61.286;2023-01-05T10:36:58;44.90;;;22.57;;
25175;SDS011;13135;55.166;61.286;2023-01-05T10:39:59;40.13;;;20.23;;
25175;SDS011;13135;55.166;61.286;2023-01-05T10:43:08;38.60;;;20.43;;
25175;SDS011;13135;55.166;61.286;2023-01-05T10:46:01;36.70;;;18.13;;
25175;SDS011;13135;55.166;61.286;2023-01-05T10:48:46;40.80;;;19.17;;
25175;SDS011;13135;55.166;61.286;2023-01-05T10:51:32;43.27;;;21.50;;
25175;SDS011;13135;55.166;61.286;2023-01-05T10:54:31;76.43;;;34.13;;
25175;SDS011;13135;55.166;61.286;2023-01-05T11:00:15;37.63;;;18.73;;
25175;SDS011;13135;55.166;61.286;2023-01-05T11:03:00;50.13;;;22.10;;
25175;SDS011;13135;55.166;61.286;2023-01-05T11:05:45;33.93;;;18.27;;
25175;SDS011;13135;55.166;61.286;2023-01-05T11:08:29;39.20;;;18.40;;
25175;SDS011;13135;55.166;61.286;2023-01-05T11:11:19;35.00;;;17.13;;
25175;SDS011;13135;55.166;61.286;2023-01-05T11:14:05;32.00;;;18.50;;
25175;SDS011;13135;55.166;61.286;2023-01-05T11:16:50;30.03;;;15.73;;
25175;SDS011;13135;55.166;61.286;2023-01-05T11:19:32;34.97;;;16.43;;
25175;SDS011;13135;55.166;61.286;2023-01-05T11:25:13;24.47;;;14.73;;
25175;SDS011;13135;55.166;61.286;2023-01-05T11:28:13;27.33;;;14.37;;
25175;SDS011;13135;55.166;61.286;2023-01-05T11:31:03;24.50;;;12.60;;
25175;SDS011;13135;55.166;61.286;2023-01-05T11:33:48;35.00;;;15.80;;
25175;SDS011;13135;55.166;61.286;2023-01-05T11:36:32;40.60;;;20.30;;
25175;SDS011;13135;55.166;61.286;2023-01-05T11:39:24;24.70;;;15.00;;
25175;SDS011;13135;55.166;61.286;2023-01-05T11:42:05;35.30;;;15.63;;
25175;SDS011;13135;55.166;61.286;2023-01-05T11:45:01;25.43;;;14.47;;
25175;SDS011;13135;55.166;61.286;2023-01-05T11:47:53;32.10;;;15.80;;
25175;SDS011;13135;55.166;61.286;2023-01-05T12:04:18;43.13;;;21.57;;
25175;SDS011;13135;55.166;61.286;2023-01-05T12:10:16;24.20;;;15.10;;
25175;SDS011;13135;55.166;61.286;2023-01-05T12:13:08;20.63;;;12.03;;
25175;SDS011;13135;55.166;61.286;2023-01-05T12:15:54;38.40;;;21.53;;
25175;SDS011;13135;55.166;61.286;2023-01-05T12:18:44;35.10;;;17.63;;
25175;SDS011;13135;55.166;61.286;2023-01-05T12:21:33;20.53;;;11.03;;
25175;SDS011;13135;55.166;61.286;2023-01-05T12:24:20;22.23;;;11.40;;
25175;SDS011;13135;55.166;61.286;2023-01-05T12:30:11;20.03;;;11.10;;
25175;SDS011;13135;55.166;61.286;2023-01-05T12:35:56;21.20;;;10.33;;
25175;SDS011;13135;55.166;61.286;2023-01-05T12:38:45;18.67;;;9.37;;
25175;SDS011;13135;55.166;61.286;2023-01-05T12:47:55;13.07;;;8.10;;
25175;SDS011;13135;55.166;61.286;2023-01-05T12:50:46;17.27;;;10.60;;
25175;SDS011;13135;55.166;61.286;2023-01-05T12:56:36;19.07;;;8.33;;
25175;SDS011;13135;55.166;61.286;2023-01-05T12:59:23;16.03;;;9.90;;
25175;SDS011;13135;55.166;61.286;2023-01-05T13:05:21;17.33;;;11.60;;
25175;SDS011;13135;55.166;61.286;2023-01-05T13:08:10;19.83;;;10.37;;
25175;SDS011;13135;55.166;61.286;2023-01-05T13:10:58;13.50;;;9.57;;
25175;SDS011;13135;55.166;61.286;2023-01-05T13:13:46;13.77;;;7.63;;
25175;SDS011;13135;55.166;61.286;2023-01-05T13:16:39;17.23;;;8.50;;
25175;SDS011;13135;55.166;61.286;2023-01-05T13:19:30;16.37;;;8.33;;
25175;SDS011;13135;55.166;61.286;2023-01-05T13:22:18;11.77;;;7.07;;
25175;SDS011;13135;55.166;61.286;2023-01-05T13:25:04;14.27;;;6.63;;
25175;SDS011;13135;55.166;61.286;2023-01-05T13:27:48;8.40;;;5.13;;
25175;SDS011;13135;55.166;61.286;2023-01-05T13:30:37;5.67;;;5.07;;
25175;SDS011;13135;55.166;61.286;2023-01-05T13:33:24;7.57;;;5.70;;
25175;SDS011;13135;55.166;61.286;2023-01-05T13:36:23;14.73;;;8.30;;
25175;SDS011;13135;55.166;61.286;2023-01-05T13:42:27;16.00;;;7.87;;
25175;SDS011;13135;55.166;61.286;2023-01-05T13:45:24;18.77;;;10.47;;
25175;SDS011;13135;55.166;61.286;2023-01-05T13:57:22;15.47;;;9.33;;
25175;SDS011;13135;55.166;61.286;2023-01-05T14:00:25;33.80;;;21.70;;
25175;SDS011;13135;55.166;61.286;2023-01-05T14:03:26;47.97;;;25.97;;
25175;SDS011;13135;55.166;61.286;2023-01-05T14:06:14;44.10;;;21.90;;
25175;SDS011;13135;55.166;61.286;2023-01-05T14:09:02;34.90;;;18.60;;
25175;SDS011;13135;55.166;61.286;2023-01-05T14:17:49;37.20;;;16.27;;
25175;SDS011;13135;55.166;61.286;2023-01-05T14:20:42;25.93;;;14.03;;
25175;SDS011;13135;55.166;61.286;2023-01-05T14:29:58;32.77;;;17.50;;
25175;SDS011;13135;55.166;61.286;2023-01-05T14:32:42;18.70;;;11.97;;
25175;SDS011;13135;55.166;61.286;2023-01-05T14:35:28;33.57;;;18.57;;
25175;SDS011;13135;55.166;61.286;2023-01-05T14:38:16;19.83;;;12.23;;
25175;SDS011;13135;55.166;61.286;2023-01-05T14:40:59;18.93;;;9.70;;
25175;SDS011;13135;55.166;61.286;2023-01-05T14:43:43;25.83;;;11.67;;
25175;SDS011;13135;55.166;61.286;2023-01-05T14:46:41;23.77;;;13.93;;
25175;SDS011;13135;55.166;61.286;2023-01-05T14:49:18;20.20;;;11.50;;
25175;SDS011;13135;55.166;61.286;2023-01-05T14:52:03;13.70;;;9.67;;
25175;SDS011;13135;55.166;61.286;2023-01-05T14:57:54;14.30;;;9.23;;
25175;SDS011;13135;55.166;61.286;2023-01-05T15:00:41;16.23;;;12.37;;
25175;SDS011;13135;55.166;61.286;2023-01-05T15:06:40;18.33;;;11.13;;
25175;SDS011;13135;55.166;61.286;2023-01-05T15:12:33;29.77;;;16.10;;
25175;SDS011;13135;55.166;61.286;2023-01-05T15:15:41;27.63;;;16.20;;
25175;SDS011;13135;55.166;61.286;2023-01-05T15:18:38;29.27;;;16.87;;
25175;SDS011;13135;55.166;61.286;2023-01-05T15:27:42;18.10;;;10.90;;
25175;SDS011;13135;55.166;61.286;2023-01-05T15:30:43;16.23;;;11.67;;
25175;SDS011;13135;55.166;61.286;2023-01-05T15:33:36;33.83;;;12.23;;
25175;SDS011;13135;55.166;61.286;2023-01-05T15:36:38;15.87;;;11.60;;
25175;SDS011;13135;55.166;61.286;2023-01-05T15:39:29;28.17;;;13.20;;
25175;SDS011;13135;55.166;61.286;2023-01-05T15:42:20;19.13;;;14.60;;
25175;SDS011;13135;55.166;61.286;2023-01-05T15:45:06;25.20;;;12.23;;
25175;SDS011;13135;55.166;61.286;2023-01-05T15:47:55;59.00;;;29.20;;
25175;SDS011;13135;55.166;61.286;2023-01-05T15:50:43;48.17;;;27.93;;
25175;SDS011;13135;55.166;61.286;2023-01-05T15:53:32;28.77;;;16.87;;
25175;SDS011;13135;55.166;61.286;2023-01-05T15:56:23;43.43;;;24.93;;
25175;SDS011;13135;55.166;61.286;2023-01-05T16:05:08;28.70;;;14.87;;
25175;SDS011;13135;55.166;61.286;2023-01-05T16:07:56;35.43;;;15.23;;
25175;SDS011;13135;55.166;61.286;2023-01-05T16:10:44;23.63;;;13.57;;
25175;SDS011;13135;55.166;61.286;2023-01-05T16:13:39;19.23;;;13.17;;
25175;SDS011;13135;55.166;61.286;2023-01-05T16:16:39;21.87;;;11.60;;
25175;SDS011;13135;55.166;61.286;2023-01-05T16:19:30;20.37;;;12.83;;
25175;SDS011;13135;55.166;61.286;2023-01-05T16:22:19;93.10;;;41.83;;
25175;SDS011;13135;55.166;61.286;2023-01-05T16:25:04;77.67;;;34.90;;
25175;SDS011;13135;55.166;61.286;2023-01-05T16:27:48;58.43;;;35.07;;
25175;SDS011;13135;55.166;61.286;2023-01-05T16:30:34;52.33;;;25.47;;
25175;SDS011;13135;55.166;61.286;2023-01-05T16:33:21;50.17;;;22.47;;
25175;SDS011;13135;55.166;61.286;2023-01-05T16:36:09;52.43;;;23.17;;
25175;SDS011;13135;55.166;61.286;2023-01-05T16:42:02;28.40;;;17.97;;
25175;SDS011;13135;55.166;61.286;2023-01-05T16:44:58;35.47;;;20.60;;
25175;SDS011;13135;55.166;61.286;2023-01-05T16:47:43;29.00;;;16.70;;
25175;SDS011;13135;55.166;61.286;2023-01-05T16:53:42;27.10;;;15.77;;
25175;SDS011;13135;55.166;61.286;2023-01-05T16:56:47;33.67;;;18.43;;
25175;SDS011;13135;55.166;61.286;2023-01-05T16:59:31;25.93;;;18.17;;
25175;SDS011;13135;55.166;61.286;2023-01-05T17:05:15;35.87;;;18.70;;
25175;SDS011;13135;55.166;61.286;2023-01-05T17:08:03;27.20;;;17.83;;
25175;SDS011;13135;55.166;61.286;2023-01-05T17:10:54;34.70;;;18.50;;
25175;SDS011;13135;55.166;61.286;2023-01-05T17:13:42;27.80;;;17.10;;
25175;SDS011;13135;55.166;61.286;2023-01-05T17:16:27;33.33;;;18.90;;
25175;SDS011;13135;55.166;61.286;2023-01-05T17:19:13;30.57;;;17.10;;
25175;SDS011;13135;55.166;61.286;2023-01-05T17:21:58;33.80;;;17.57;;
25175;SDS011;13135;55.166;61.286;2023-01-05T17:24:42;66.20;;;34.83;;
25175;SDS011;13135;55.166;61.286;2023-01-05T17:27:23;101.70;;;49.17;;
25175;SDS011;13135;55.166;61.286;2023-01-05T17:30:12;38.27;;;20.17;;
25175;SDS011;13135;55.166;61.286;2023-01-05T17:33:00;37.43;;;19.93;;
25175;SDS011;13135;55.166;61.286;2023-01-05T17:35:47;27.73;;;15.63;;
25175;SDS011;13135;55.166;61.286;2023-01-05T17:38:37;50.80;;;23.83;;
25175;SDS011;13135;55.166;61.286;2023-01-05T17:41:21;39.80;;;21.53;;
25175;SDS011;13135;55.166;61.286;2023-01-05T17:44:06;42.53;;;23.17;;
25175;SDS011;13135;55.166;61.286;2023-01-05T17:46:51;38.70;;;20.13;;
25175;SDS011;13135;55.166;61.286;2023-01-05T17:49:36;32.77;;;18.83;;
25175;SDS011;13135;55.166;61.286;2023-01-05T17:52:19;24.37;;;15.10;;
25175;SDS011;13135;55.166;61.286;2023-01-05T17:55:04;25.53;;;16.70;;
25175;SDS011;13135;55.166;61.286;2023-01-05T17:57:50;18.57;;;13.43;;
25175;SDS011;13135;55.166;61.286;2023-01-05T18:00:33;27.97;;;14.57;;
25175;SDS011;13135;55.166;61.286;2023-01-05T18:03:18;34.37;;;17.07;;
25175;SDS011;13135;55.166;61.286;2023-01-05T18:06:03;24.47;;;14.47;;
25175;SDS011;13135;55.166;61.286;2023-01-05T18:08:49;25.60;;;14.93;;
25175;SDS011;13135;55.166;61.286;2023-01-05T18:11:34;27.43;;;16.57;;
25175;SDS011;13135;55.166;61.286;2023-01-05T18:14:18;28.87;;;17.47;;
25175;SDS011;13135;55.166;61.286;2023-01-05T18:17:03;28.50;;;13.13;;